createdAt,value
2023-05-11T00:00:16.548Z,11.86
2023-05-11T00:02:45.997Z,11.94
2023-05-11T00:05:15.561Z,11.89
2023-05-11T00:07:44.686Z,11.90
2023-05-11T00:10:13.782Z,11.95
2023-05-11T00:12:42.952Z,11.93
2023-05-11T00:15:13.579Z,11.66
2023-05-11T00:17:42.725Z,11.80
2023-05-11T00:20:12.342Z,11.89
2023-05-11T00:22:43.524Z,11.87
2023-05-11T00:25:14.204Z,11.86
2023-05-11T00:27:45.900Z,11.72
2023-05-11T00:30:17.580Z,11.77
2023-05-11T00:32:47.176Z,11.85
2023-05-11T00:35:16.302Z,11.75
2023-05-11T00:37:45.390Z,11.81
2023-05-11T00:40:14.577Z,11.83
2023-05-11T00:42:43.768Z,11.86
2023-05-11T00:45:12.875Z,11.80
2023-05-11T00:47:44.064Z,11.80
2023-05-11T00:50:13.239Z,11.90
2023-05-11T00:52:43.262Z,11.89
2023-05-11T00:55:14.672Z,11.93
2023-05-11T00:57:44.508Z,11.91
2023-05-11T01:00:14.829Z,11.89
2023-05-11T01:02:45.738Z,11.80
2023-05-11T01:05:15.112Z,11.94
2023-05-11T01:07:50.698Z,11.85
2023-05-11T01:10:28.911Z,11.85
2023-05-11T01:13:08.535Z,11.76
2023-05-11T01:15:45.746Z,11.78
2023-05-11T01:18:26.273Z,11.76
2023-05-11T01:20:59.849Z,11.73
2023-05-11T01:23:50.059Z,11.80
2023-05-11T01:26:36.015Z,11.77
2023-05-11T01:29:22.319Z,11.67
2023-05-11T01:31:57.211Z,11.69
2023-05-11T01:34:29.417Z,11.68
2023-05-11T01:37:06.260Z,11.65
2023-05-11T01:39:39.433Z,11.70
2023-05-11T01:42:10.988Z,11.62
2023-05-11T01:44:45.359Z,11.70
2023-05-11T01:47:17.080Z,11.64
2023-05-11T01:49:47.705Z,11.65
2023-05-11T01:52:19.033Z,11.58
2023-05-11T01:54:49.688Z,11.63
2023-05-11T01:57:20.291Z,11.45
2023-05-11T01:59:51.374Z,11.56
2023-05-11T02:02:22.791Z,11.60
2023-05-11T02:04:52.359Z,11.73
2023-05-11T02:07:23.762Z,11.77
2023-05-11T02:09:54.452Z,11.70
2023-05-11T02:12:26.177Z,11.60
2023-05-11T02:14:56.842Z,11.67
2023-05-11T02:17:28.237Z,11.61
2023-05-11T02:19:58.422Z,11.51
2023-05-11T02:22:29.081Z,11.67
2023-05-11T02:24:58.373Z,11.54
2023-05-11T02:27:27.448Z,11.49
2023-05-11T02:29:57.959Z,11.46
2023-05-11T02:32:29.985Z,11.50
2023-05-11T02:35:02.855Z,11.55
2023-05-11T02:37:34.644Z,11.53
2023-05-11T02:40:08.789Z,11.50
2023-05-11T02:42:40.152Z,11.44
2023-05-11T02:45:12.272Z,11.51
2023-05-11T02:47:46.394Z,11.40
2023-05-11T02:50:22.352Z,11.49
2023-05-11T02:52:54.603Z,11.48
2023-05-11T02:55:24.664Z,11.41
2023-05-11T02:57:54.167Z,11.29
2023-05-11T03:00:23.589Z,11.43
2023-05-11T03:02:54.594Z,11.45
2023-05-11T03:05:25.244Z,11.44
2023-05-11T03:07:58.569Z,11.45
2023-05-11T03:10:30.014Z,11.48
2023-05-11T03:13:00.154Z,11.49
2023-05-11T03:15:30.467Z,11.39
2023-05-11T03:18:03.989Z,11.42
2023-05-11T03:20:34.988Z,11.33
2023-05-11T03:23:05.566Z,11.44
2023-05-11T03:25:35.008Z,11.44
2023-05-11T03:28:05.251Z,11.30
2023-05-11T03:30:38.132Z,11.33
2023-05-11T03:33:08.674Z,11.44
2023-05-11T03:35:38.694Z,11.39
2023-05-11T03:38:08.692Z,11.40
2023-05-11T03:40:40.976Z,11.39
2023-05-11T03:43:12.553Z,11.43
2023-05-11T03:45:43.998Z,11.23
2023-05-11T03:48:16.736Z,11.38
2023-05-11T03:50:46.128Z,11.34
2023-05-11T03:53:16.509Z,11.45
2023-05-11T03:55:45.629Z,11.48
2023-05-11T03:58:14.981Z,11.46
2023-05-11T04:00:45.086Z,11.44
2023-05-11T04:03:15.878Z,11.49
2023-05-11T04:05:45.015Z,11.50
2023-05-11T04:08:15.608Z,11.55
2023-05-11T04:10:44.720Z,11.51
2023-05-11T04:13:13.799Z,11.54
2023-05-11T04:15:43.011Z,11.46
2023-05-11T04:18:12.116Z,11.55
2023-05-11T04:20:42.591Z,11.52
2023-05-11T04:23:11.734Z,11.33
2023-05-11T04:25:40.821Z,11.31
2023-05-11T04:28:10.008Z,11.39
2023-05-11T04:30:39.123Z,11.39
2023-05-11T04:33:08.295Z,11.50
2023-05-11T04:35:42.499Z,11.52
2023-05-11T04:38:11.918Z,11.49
2023-05-11T04:40:41.019Z,11.48
2023-05-11T04:43:10.906Z,11.32
2023-05-11T04:45:39.996Z,11.45
2023-05-11T04:48:09.361Z,11.45
2023-05-11T04:50:38.828Z,11.48
2023-05-11T04:53:09.420Z,11.55
2023-05-11T04:55:38.700Z,11.53
2023-05-11T04:58:07.826Z,11.38
2023-05-11T05:00:37.548Z,11.57
2023-05-11T05:03:07.478Z,11.40
2023-05-11T05:05:37.100Z,11.42
2023-05-11T05:08:08.451Z,11.62
2023-05-11T05:10:37.751Z,11.53
2023-05-11T05:13:06.982Z,11.60
2023-05-11T05:15:36.096Z,11.44
2023-05-11T05:18:05.561Z,11.54
2023-05-11T05:20:36.090Z,11.76
2023-05-11T05:23:05.671Z,11.81
2023-05-11T05:25:37.661Z,11.90
2023-05-11T05:28:06.810Z,11.85
2023-05-11T05:30:37.184Z,12.05
2023-05-11T05:33:06.757Z,11.91
2023-05-11T05:35:37.631Z,11.95
2023-05-11T05:38:07.593Z,11.94
2023-05-11T05:40:39.499Z,12.11
2023-05-11T05:43:09.202Z,12.00
2023-05-11T05:45:38.324Z,12.01
2023-05-11T05:48:09.761Z,11.88
2023-05-11T05:50:39.246Z,11.93
2023-05-11T05:53:08.920Z,11.95
2023-05-11T05:55:39.980Z,12.07
2023-05-11T05:58:16.446Z,12.06
2023-05-11T06:00:45.796Z,12.25
2023-05-11T06:03:15.633Z,11.93
2023-05-11T06:05:44.925Z,12.01
2023-05-11T06:08:14.428Z,12.11
2023-05-11T06:10:45.004Z,12.24
2023-05-11T06:13:15.068Z,12.11
2023-05-11T06:15:46.194Z,12.21
2023-05-11T06:18:24.360Z,12.22
2023-05-11T06:20:53.880Z,12.28
2023-05-11T06:23:23.899Z,12.20
2023-05-11T06:25:54.450Z,12.44
2023-05-11T06:28:24.458Z,12.44
2023-05-11T06:30:59.257Z,12.36
2023-05-11T06:33:30.546Z,12.43
2023-05-11T06:36:05.050Z,12.36
2023-05-11T06:38:34.481Z,12.49
2023-05-11T06:41:06.274Z,12.52
2023-05-11T06:43:35.595Z,12.52
2023-05-11T06:46:05.808Z,12.61
2023-05-11T06:48:35.035Z,12.61
2023-05-11T06:51:04.256Z,12.73
2023-05-11T06:53:33.367Z,12.43
2023-05-11T06:56:03.779Z,12.48
2023-05-11T06:58:32.929Z,12.65
2023-05-11T07:01:02.363Z,12.60
2023-05-11T07:03:31.501Z,12.69
2023-05-11T07:06:00.676Z,12.63
2023-05-11T07:08:29.972Z,12.79
2023-05-11T07:10:59.063Z,12.88
2023-05-11T07:13:29.476Z,12.93
2023-05-11T07:15:58.593Z,12.87
2023-05-11T07:18:27.739Z,12.91
2023-05-11T07:20:56.867Z,13.12
2023-05-11T07:23:25.933Z,13.23
2023-05-11T07:25:57.397Z,13.10
2023-05-11T07:28:28.140Z,13.01
2023-05-11T07:30:57.538Z,12.81
2023-05-11T07:33:26.660Z,12.80
2023-05-11T07:35:55.969Z,13.02
2023-05-11T07:38:25.049Z,13.12
2023-05-11T07:40:54.116Z,13.27
2023-05-11T07:43:23.180Z,12.88
2023-05-11T07:45:53.730Z,13.06
2023-05-11T07:48:23.211Z,13.16
2023-05-11T07:50:52.685Z,13.39
2023-05-11T07:53:21.834Z,13.24
2023-05-11T07:55:51.153Z,13.25
2023-05-11T07:58:20.345Z,13.52
2023-05-11T08:00:49.469Z,13.44
2023-05-11T08:03:20.018Z,13.64
2023-05-11T08:05:49.233Z,13.56
2023-05-11T08:08:18.394Z,13.36
2023-05-11T08:10:47.529Z,13.46
2023-05-11T08:13:17.304Z,13.37
2023-05-11T08:15:46.553Z,13.50
2023-05-11T08:18:15.797Z,13.68
2023-05-11T08:20:46.315Z,13.77
2023-05-11T08:23:18.026Z,13.75
2023-05-11T08:25:54.944Z,13.91
2023-05-11T08:28:24.378Z,14.04
2023-05-11T08:30:57.742Z,14.02
2023-05-11T08:33:37.491Z,13.92
2023-05-11T08:36:10.332Z,14.02
2023-05-11T08:38:39.409Z,14.04
2023-05-11T08:41:09.016Z,14.26
2023-05-11T08:43:40.471Z,13.92
2023-05-11T08:46:12.274Z,13.90
2023-05-11T08:48:42.505Z,14.08
2023-05-11T08:51:13.053Z,13.84
2023-05-11T08:53:42.142Z,13.76
2023-05-11T08:56:12.824Z,13.88
2023-05-11T08:58:43.514Z,13.90
2023-05-11T09:01:13.204Z,13.85
2023-05-11T09:03:43.770Z,13.97
2023-05-11T09:06:15.343Z,14.07
2023-05-11T09:08:45.873Z,13.74
2023-05-11T09:11:15.480Z,13.94
2023-05-11T09:13:44.838Z,14.07
2023-05-11T09:16:32.576Z,14.15
2023-05-11T09:19:04.045Z,14.05
2023-05-11T09:21:35.028Z,14.02
2023-05-11T09:24:04.538Z,14.05
2023-05-11T09:26:37.163Z,13.96
2023-05-11T09:29:06.742Z,13.99
2023-05-11T09:31:43.438Z,14.19
2023-05-11T09:34:14.653Z,14.23
2023-05-11T09:36:46.303Z,13.94
2023-05-11T09:39:17.103Z,14.11
2023-05-11T09:41:52.509Z,14.33
2023-05-11T09:44:21.781Z,14.31
2023-05-11T09:46:50.925Z,14.31
2023-05-11T09:49:20.018Z,14.47
2023-05-11T09:52:01.491Z,14.15
2023-05-11T09:54:30.641Z,14.38
2023-05-11T09:57:00.295Z,14.40
2023-05-11T09:59:40.165Z,14.34
2023-05-11T10:02:23.898Z,14.47
2023-05-11T10:04:54.124Z,14.31
2023-05-11T10:07:29.709Z,14.47
2023-05-11T10:10:00.272Z,14.72
2023-05-11T10:12:32.730Z,14.67
2023-05-11T10:15:04.824Z,14.63
2023-05-11T10:17:35.012Z,14.57
2023-05-11T10:20:05.967Z,14.73
2023-05-11T10:22:36.707Z,14.73
2023-05-11T10:25:06.955Z,14.95
2023-05-11T10:27:37.963Z,14.88
2023-05-11T10:30:11.467Z,14.91
2023-05-11T10:32:40.738Z,15.07
2023-05-11T10:35:10.976Z,15.10
2023-05-11T10:37:43.243Z,14.98
2023-05-11T10:40:13.017Z,14.66
2023-05-11T10:43:05.419Z,15.03
2023-05-11T10:45:44.089Z,15.25
2023-05-11T10:48:49.061Z,15.27
2023-05-11T10:51:54.167Z,15.10
2023-05-11T10:54:38.122Z,15.25
2023-05-11T10:57:16.580Z,15.23
2023-05-11T11:00:21.513Z,15.39
2023-05-11T11:02:50.915Z,15.11
2023-05-11T11:05:34.877Z,15.16
2023-05-11T11:08:04.791Z,15.23
2023-05-11T11:10:37.718Z,15.37
2023-05-11T11:13:08.997Z,15.29
2023-05-11T11:16:13.897Z,15.19
2023-05-11T11:18:45.521Z,15.47
2023-05-11T11:21:15.932Z,15.26
2023-05-11T11:23:48.952Z,15.48
2023-05-11T11:26:41.178Z,15.51
2023-05-11T11:29:12.678Z,15.74
2023-05-11T11:31:43.865Z,15.64
2023-05-11T11:34:38.711Z,15.32
2023-05-11T11:37:10.982Z,15.53
2023-05-11T11:40:13.305Z,15.72
2023-05-11T11:42:44.735Z,16.11
2023-05-11T11:45:39.898Z,16.11
2023-05-11T11:48:21.527Z,16.31
2023-05-11T11:51:01.403Z,16.36
2023-05-11T11:54:09.660Z,16.59
2023-05-11T11:56:43.558Z,16.36
2023-05-11T11:59:15.189Z,16.28
2023-05-11T12:01:46.934Z,16.55
2023-05-11T12:04:40.711Z,15.83
2023-05-11T12:07:13.489Z,16.34
2023-05-11T12:09:42.612Z,16.50
2023-05-11T12:12:12.439Z,16.24
2023-05-11T12:14:48.697Z,16.11
2023-05-11T12:17:28.114Z,16.52
2023-05-11T12:20:12.482Z,16.69
2023-05-11T12:22:41.666Z,17.15
2023-05-11T12:25:12.529Z,17.40
2023-05-11T12:27:49.825Z,18.23
2023-05-11T12:30:23.919Z,17.36
2023-05-11T12:32:56.944Z,17.39
2023-05-11T12:35:28.049Z,17.43
2023-05-11T12:37:58.479Z,17.83
2023-05-11T12:40:28.149Z,17.87
2023-05-11T12:42:58.891Z,18.27
2023-05-11T12:45:29.592Z,17.77
2023-05-11T12:48:00.516Z,17.39
2023-05-11T12:50:29.720Z,17.26
2023-05-11T12:53:14.875Z,17.27
2023-05-11T12:55:44.479Z,17.27
2023-05-11T12:58:15.316Z,17.91
2023-05-11T13:00:54.938Z,17.81
2023-05-11T13:03:26.771Z,17.85
2023-05-11T13:06:06.621Z,17.95
2023-05-11T13:08:36.202Z,18.27
2023-05-11T13:11:22.347Z,18.56
2023-05-11T13:13:52.072Z,18.12
2023-05-11T13:16:28.970Z,18.15
2023-05-11T13:19:00.475Z,18.03
2023-05-11T13:21:30.315Z,17.97
2023-05-11T13:23:59.505Z,18.41
2023-05-11T13:26:30.600Z,18.16
2023-05-11T13:29:10.339Z,18.55
2023-05-11T13:31:47.366Z,18.38
2023-05-11T13:34:18.290Z,17.97
2023-05-11T13:36:48.420Z,18.13
2023-05-11T13:39:17.629Z,18.23
2023-05-11T13:41:47.392Z,18.27
2023-05-11T13:44:16.548Z,18.63
2023-05-11T13:46:45.782Z,18.50
2023-05-11T13:49:14.884Z,18.99
2023-05-11T13:51:45.408Z,18.90
2023-05-11T13:54:14.489Z,18.77
2023-05-11T13:56:43.671Z,19.45
2023-05-11T13:59:12.762Z,18.87
2023-05-11T14:01:42.013Z,19.37
2023-05-11T14:04:11.219Z,19.97
2023-05-11T14:06:40.306Z,20.20
2023-05-11T14:09:10.864Z,20.75
2023-05-11T14:11:39.951Z,20.32
2023-05-11T14:14:09.065Z,19.74
2023-05-11T14:16:38.477Z,20.11
2023-05-11T14:19:07.613Z,20.37
2023-05-11T14:21:37.854Z,20.39
2023-05-11T14:24:12.064Z,19.88
2023-05-11T14:26:43.602Z,20.56
2023-05-11T14:29:12.722Z,20.55
2023-05-11T14:31:42.369Z,19.86
2023-05-11T14:34:11.438Z,19.83
2023-05-11T14:36:40.535Z,20.27
2023-05-11T14:39:09.671Z,20.06
2023-05-11T14:41:38.745Z,20.02
2023-05-11T14:44:09.939Z,19.35
2023-05-11T14:46:39.172Z,19.05
2023-05-11T14:49:08.292Z,19.00
2023-05-11T14:51:39.434Z,19.51
2023-05-11T14:54:08.775Z,19.19
2023-05-11T14:56:37.844Z,19.20
2023-05-11T14:59:08.240Z,19.17
2023-05-11T15:01:37.411Z,18.69
2023-05-11T15:04:06.700Z,19.09
2023-05-11T15:06:36.141Z,19.61
2023-05-11T15:09:05.258Z,19.18
2023-05-11T15:11:34.304Z,19.17
2023-05-11T15:14:03.416Z,19.44
2023-05-11T15:16:33.930Z,19.49
2023-05-11T15:19:03.074Z,19.67
2023-05-11T15:21:32.540Z,19.68
2023-05-11T15:24:01.654Z,19.16
2023-05-11T15:26:31.097Z,19.29
2023-05-11T15:29:00.600Z,19.59
2023-05-11T15:31:29.700Z,20.47
2023-05-11T15:34:01.174Z,20.11
2023-05-11T15:36:30.622Z,20.30
2023-05-11T15:38:59.984Z,20.91
2023-05-11T15:41:29.199Z,21.22
2023-05-11T15:43:58.284Z,21.19
2023-05-11T15:46:27.439Z,20.26
2023-05-11T15:48:59.060Z,20.13
2023-05-11T15:51:30.535Z,20.51
2023-05-11T15:53:59.696Z,20.79
2023-05-11T15:56:28.854Z,21.27
2023-05-11T15:58:57.989Z,20.52
2023-05-11T16:01:27.134Z,20.61
2023-05-11T16:03:57.390Z,20.31
2023-05-11T16:06:26.989Z,20.69
2023-05-11T16:08:57.463Z,20.68
2023-05-11T16:11:26.915Z,19.87
2023-05-11T16:13:56.035Z,19.39
2023-05-11T16:16:25.353Z,20.15
2023-05-11T16:18:54.465Z,20.80
2023-05-11T16:21:23.597Z,20.16
2023-05-11T16:23:52.675Z,20.39
2023-05-11T16:26:23.188Z,20.29
2023-05-11T16:28:52.235Z,20.26
2023-05-11T16:31:21.671Z,20.64
2023-05-11T16:33:51.152Z,20.28
2023-05-11T16:36:21.048Z,20.09
2023-05-11T16:38:50.265Z,20.42
2023-05-11T16:41:19.345Z,20.21
2023-05-11T16:43:50.138Z,20.57
2023-05-11T16:46:19.293Z,20.19
2023-05-11T16:48:48.413Z,20.38
2023-05-11T16:51:17.472Z,20.05
2023-05-11T16:53:47.719Z,19.71
2023-05-11T16:56:16.842Z,19.97
2023-05-11T16:58:45.967Z,19.68
2023-05-11T17:01:16.781Z,19.94
2023-05-11T17:03:46.027Z,19.69
2023-05-11T17:06:18.492Z,19.50
2023-05-11T17:08:49.715Z,19.72
2023-05-11T17:11:18.780Z,19.94
2023-05-11T17:13:47.890Z,19.84
2023-05-11T17:16:18.450Z,19.53
2023-05-11T17:18:47.894Z,19.26
2023-05-11T17:21:17.267Z,19.40
2023-05-11T17:23:46.824Z,19.53
2023-05-11T17:26:15.922Z,19.55
2023-05-11T17:28:45.005Z,19.38
2023-05-11T17:31:16.150Z,19.10
2023-05-11T17:33:46.953Z,19.18
2023-05-11T17:36:16.239Z,18.94
2023-05-11T17:38:45.343Z,18.74
2023-05-11T17:41:15.214Z,19.07
2023-05-11T17:43:44.534Z,18.79
2023-05-11T17:46:13.739Z,18.56
2023-05-11T17:48:43.034Z,18.38
2023-05-11T17:51:14.229Z,18.25
2023-05-11T17:53:43.486Z,18.28
2023-05-11T17:56:13.590Z,18.30
2023-05-11T17:58:43.653Z,18.25
2023-05-11T18:01:14.299Z,17.99
2023-05-11T18:03:43.822Z,18.12
2023-05-11T18:06:14.682Z,17.80
2023-05-11T18:08:44.023Z,17.69
2023-05-11T18:11:13.936Z,17.72
2023-05-11T18:13:43.195Z,17.69
2023-05-11T18:16:12.639Z,17.40
2023-05-11T18:18:43.135Z,17.42
2023-05-11T18:21:13.855Z,17.46
2023-05-11T18:23:43.127Z,17.38
2023-05-11T18:26:13.966Z,17.38
2023-05-11T18:28:43.129Z,17.31
2023-05-11T18:31:12.236Z,17.23
2023-05-11T18:33:41.456Z,17.21
2023-05-11T18:36:11.318Z,17.21
2023-05-11T18:38:43.088Z,17.11
2023-05-11T18:41:12.224Z,17.00
2023-05-11T18:43:43.599Z,16.92
2023-05-11T18:46:12.875Z,16.85
2023-05-11T18:48:42.450Z,16.84
2023-05-11T18:51:11.709Z,16.76
2023-05-11T18:53:42.106Z,16.70
2023-05-11T18:56:11.468Z,16.71
2023-05-11T18:58:40.809Z,16.61
2023-05-11T19:01:10.061Z,16.54
2023-05-11T19:03:39.367Z,16.47
2023-05-11T19:06:09.073Z,16.45
2023-05-11T19:08:38.360Z,16.44
2023-05-11T19:11:10.483Z,16.31
2023-05-11T19:13:39.971Z,16.37
2023-05-11T19:16:09.084Z,16.34
2023-05-11T19:18:39.938Z,16.26
2023-05-11T19:21:09.848Z,16.24
2023-05-11T19:23:39.156Z,16.03
2023-05-11T19:26:09.606Z,16.10
2023-05-11T19:28:38.751Z,15.96
2023-05-11T19:31:08.181Z,15.91
2023-05-11T19:33:37.418Z,15.83
2023-05-11T19:36:06.644Z,15.77
2023-05-11T19:38:36.689Z,15.70
2023-05-11T19:41:05.766Z,15.71
2023-05-11T19:43:36.528Z,15.61
2023-05-11T19:46:06.107Z,15.55
2023-05-11T19:48:35.389Z,15.49
2023-05-11T19:51:04.570Z,15.39
2023-05-11T19:53:34.025Z,15.34
2023-05-11T19:56:03.588Z,15.28
2023-05-11T19:58:32.653Z,15.18
2023-05-11T20:01:03.185Z,15.09
2023-05-11T20:03:32.430Z,14.99
2023-05-11T20:06:01.558Z,14.92
2023-05-11T20:08:30.763Z,14.83
2023-05-11T20:10:59.834Z,14.74
2023-05-11T20:13:29.027Z,14.71
2023-05-11T20:15:58.403Z,14.62
2023-05-11T20:18:29.325Z,14.56
2023-05-11T20:20:58.481Z,14.53
2023-05-11T20:23:28.386Z,14.50
2023-05-11T20:25:57.507Z,14.49
2023-05-11T20:28:27.335Z,14.41
2023-05-11T20:30:57.044Z,14.39
2023-05-11T20:36:00.141Z,14.25
2023-05-11T20:38:29.399Z,14.10
2023-05-11T20:40:58.681Z,14.11
2023-05-11T20:43:28.190Z,14.05
2023-05-11T20:46:02.186Z,14.03
2023-05-11T20:48:40.601Z,13.97
2023-05-11T20:51:10.465Z,13.89
2023-05-11T20:53:39.811Z,13.88
2023-05-11T20:56:12.528Z,13.74
2023-05-11T20:58:41.916Z,13.78
2023-05-11T21:01:11.039Z,13.71
2023-05-11T21:03:41.614Z,13.67
2023-05-11T21:06:10.858Z,13.63
2023-05-11T21:08:40.058Z,13.59
2023-05-11T21:11:09.426Z,13.56
2023-05-11T21:13:38.496Z,13.56
2023-05-11T21:16:08.467Z,13.49
2023-05-11T21:18:37.817Z,13.40
2023-05-11T21:21:09.098Z,13.39
2023-05-11T21:23:38.479Z,13.32
2023-05-11T21:26:07.649Z,13.21
2023-05-11T21:28:39.299Z,13.23
2023-05-11T21:31:08.827Z,13.20
2023-05-11T21:33:38.181Z,13.17
2023-05-11T21:36:09.151Z,13.09
2023-05-11T21:38:38.256Z,13.07
2023-05-11T21:41:07.378Z,13.00
2023-05-11T21:43:36.970Z,12.96
2023-05-11T21:46:06.260Z,12.96
2023-05-11T21:48:35.881Z,12.91
2023-05-11T21:51:05.121Z,12.89
2023-05-11T21:53:35.587Z,12.85
2023-05-11T21:56:04.893Z,12.77
2023-05-11T21:58:33.991Z,12.79
2023-05-11T22:01:03.150Z,12.77
2023-05-11T22:03:32.408Z,12.75
2023-05-11T22:06:01.637Z,12.72
2023-05-11T22:08:31.196Z,12.71
2023-05-11T22:11:01.652Z,12.70
2023-05-11T22:13:30.734Z,12.69
2023-05-11T22:15:59.880Z,12.69
2023-05-11T22:18:29.116Z,12.73
2023-05-11T22:20:58.242Z,12.81
2023-05-11T22:23:27.325Z,12.78
2023-05-11T22:25:56.462Z,12.52
2023-05-11T22:28:26.869Z,12.51
2023-05-11T22:30:56.020Z,12.64
2023-05-11T22:33:25.256Z,12.63
2023-05-11T22:35:54.345Z,12.62
2023-05-11T22:38:23.469Z,12.60
2023-05-11T22:40:52.561Z,12.38
2023-05-11T22:43:21.961Z,12.37
2023-05-11T22:45:52.463Z,12.49
2023-05-11T22:48:21.765Z,12.43
2023-05-11T22:50:50.809Z,12.40
2023-05-11T22:53:20.905Z,12.42
2023-05-11T22:55:50.055Z,12.43
2023-05-11T22:58:19.134Z,12.42
2023-05-11T23:00:48.195Z,12.41
2023-05-11T23:03:19.007Z,12.47
2023-05-11T23:05:48.176Z,12.49
2023-05-11T23:08:17.285Z,12.48
2023-05-11T23:10:46.389Z,12.53
2023-05-11T23:13:33.524Z,12.41
2023-05-11T23:16:03.426Z,12.37
2023-05-11T23:18:34.150Z,12.28
2023-05-11T23:21:03.351Z,12.23
2023-05-11T23:23:32.440Z,12.14
2023-05-11T23:26:01.572Z,12.13
2023-05-11T23:28:31.242Z,12.09
2023-05-11T23:31:00.297Z,12.06
2023-05-11T23:33:29.658Z,12.02
2023-05-11T23:36:00.168Z,11.92
2023-05-11T23:38:29.282Z,11.92
2023-05-11T23:40:59.272Z,11.96
2023-05-11T23:43:28.811Z,11.92
2023-05-11T23:45:58.386Z,11.94
2023-05-11T23:48:27.482Z,11.97
2023-05-11T23:50:56.856Z,12.00
2023-05-11T23:53:27.413Z,12.02
2023-05-11T23:55:56.556Z,12.03
2023-05-11T23:58:25.765Z,12.11
